Time;durP1;ratioP1;P1;durP2;ratioP2;P2;SDS_P1;SDS_P2;PMS_P1;PMS_P2;Temp;Humidity;BMP_temperature;BMP_pressure;BME280_temperature;BME280_humidity;BME280_pressure;Samples;Min_cycle;Max_cycle;Signal;HPM_P1;HPM_P2
2021/11/10 00:02:07;;;;;;;11.52;8.25;;;;;;;4.34;84.00;97483.50;5106690;28;20396;-72
2021/11/10 00:04:34;;;;;;;11.10;8.30;;;;;;;4.37;83.31;97481.38;5095453;28;20410;-71
2021/11/10 00:06:59;;;;;;;12.05;8.70;;;;;;;4.42;83.03;97486.03;5093672;28;20455;-72
2021/11/10 00:09:25;;;;;;;9.90;7.70;;;;;;;4.27;84.17;97488.56;5094877;28;20393;-72
2021/11/10 00:11:51;;;;;;;12.25;8.65;;;;;;;4.21;84.56;97475.44;5093805;28;20404;-72
2021/11/10 00:14:17;;;;;;;10.75;8.35;;;;;;;4.23;83.30;97471.72;5095199;28;20914;-71
2021/11/10 00:16:42;;;;;;;12.37;10.70;;;;;;;4.13;83.85;97486.66;5113182;28;20392;-72
2021/11/10 00:19:08;;;;;;;18.93;15.03;;;;;;;4.08;84.45;97491.53;5095074;28;20395;-72
2021/11/10 00:21:33;;;;;;;17.97;14.20;;;;;;;4.29;83.45;97488.41;5113475;28;20486;-72
2021/11/10 00:23:59;;;;;;;16.60;12.87;;;;;;;4.30;83.58;97502.97;5091501;28;20390;-72
2021/11/10 00:26:25;;;;;;;13.98;10.40;;;;;;;4.15;84.42;97501.09;5092663;28;20394;-72
2021/11/10 00:28:52;;;;;;;12.15;8.80;;;;;;;4.04;84.38;97511.00;5093997;28;20437;-72
2021/11/10 00:31:18;;;;;;;13.73;8.70;;;;;;;4.12;84.30;97522.16;5093996;28;20402;-72
2021/11/10 00:33:44;;;;;;;10.55;8.40;;;;;;;4.24;84.04;97525.19;5094527;28;20857;-72
2021/11/10 00:36:10;;;;;;;11.43;8.32;;;;;;;4.25;84.14;97507.84;5111269;28;20392;-72
2021/11/10 00:38:37;;;;;;;11.18;8.48;;;;;;;4.09;84.57;97513.91;5099500;28;20390;-71
2021/11/10 00:41:03;;;;;;;13.45;8.27;;;;;;;4.04;84.64;97523.97;5087585;28;20416;-72
2021/11/10 00:43:29;;;;;;;13.20;7.93;;;;;;;4.06;84.59;97520.25;5112746;28;20397;-71
2021/11/10 00:45:54;;;;;;;12.57;8.03;;;;;;;3.95;85.29;97523.22;5112045;28;20388;-72
2021/11/10 00:48:19;;;;;;;11.30;7.68;;;;;;;3.92;85.08;97510.56;5102512;28;20885;-72
2021/11/10 00:50:45;;;;;;;10.80;8.13;;;;;;;3.79;85.74;97514.66;5092868;28;20544;-71
2021/11/10 00:53:11;;;;;;;9.93;7.90;;;;;;;3.80;86.19;97511.88;5092343;28;20482;-72
2021/11/10 00:55:37;;;;;;;13.07;8.00;;;;;;;4.03;85.67;97507.63;5097476;28;20394;-72
2021/11/10 00:58:03;;;;;;;12.10;8.07;;;;;;;3.91;85.79;97503.75;5092757;28;20397;-73
2021/11/10 01:00:29;;;;;;;11.40;7.97;;;;;;;4.00;85.39;97507.97;5108452;28;20446;-72
2021/11/10 01:02:55;;;;;;;13.50;8.70;;;;;;;3.93;85.56;97511.38;5112437;28;20912;-72
2021/11/10 01:05:20;;;;;;;10.60;7.70;;;;;;;3.95;85.48;97515.44;5112327;28;20885;-72
2021/11/10 01:07:46;;;;;;;12.07;8.30;;;;;;;3.88;85.91;97513.66;5094604;28;20412;-71
2021/11/10 01:10:12;;;;;;;12.83;8.40;;;;;;;3.86;85.64;97524.19;5096853;28;20402;-72
2021/11/10 01:12:38;;;;;;;9.77;8.20;;;;;;;3.89;84.59;97517.88;5091253;28;20744;-72
2021/11/10 01:15:07;;;;;;;12.63;7.63;;;;;;;3.62;86.10;97509.50;5110204;28;20521;-72
2021/11/10 01:17:32;;;;;;;11.02;8.18;;;;;;;3.47;87.03;97515.50;5111851;28;20384;-71
2021/11/10 01:19:58;;;;;;;12.17;8.70;;;;;;;3.58;86.70;97515.19;5098242;28;20393;-71
2021/11/10 01:22:23;;;;;;;13.55;9.63;;;;;;;3.72;86.25;97510.16;5110145;28;20384;-72
2021/11/10 01:24:49;;;;;;;12.83;9.20;;;;;;;3.56;87.93;97512.78;5093268;28;20398;-71
2021/11/10 01:27:14;;;;;;;14.30;9.70;;;;;;;3.71;87.18;97503.34;5090148;28;20389;-71
2021/11/10 01:29:41;;;;;;;18.77;10.33;;;;;;;3.87;86.96;97497.28;5102267;28;20384;-72
2021/11/10 01:32:07;;;;;;;15.10;10.63;;;;;;;3.84;86.52;97483.88;5110209;28;20408;-71
2021/11/10 01:34:33;;;;;;;16.35;10.57;;;;;;;3.69;87.90;97489.72;5112032;28;20388;-72
2021/11/10 01:36:58;;;;;;;14.27;10.43;;;;;;;3.69;87.76;97491.50;5093565;28;20405;-72
2021/11/10 01:39:24;;;;;;;15.50;10.67;;;;;;;3.59;88.22;97493.47;5092482;28;20422;-71
2021/11/10 01:41:53;;;;;;;14.00;10.33;;;;;;;3.60;88.80;97488.13;5091627;28;20382;-71
2021/11/10 01:44:23;;;;;;;15.37;10.53;;;;;;;3.56;88.48;97475.69;5092936;28;20397;-71
2021/11/10 01:46:51;;;;;;;16.27;10.60;;;;;;;3.46;88.64;97472.44;5108336;28;20406;-71
2021/11/10 01:49:17;;;;;;;15.80;10.53;;;;;;;3.56;88.98;97473.09;5093719;28;20433;-72
2021/11/10 01:51:52;;;;;;;18.30;10.80;;;;;;;3.51;88.76;97470.97;5098861;28;20777;-71
2021/11/10 01:54:23;;;;;;;15.40;10.15;;;;;;;3.46;89.37;97468.06;5091789;28;20394;-71
2021/11/10 01:56:51;;;;;;;16.17;10.65;;;;;;;3.40;89.09;97455.75;5089847;28;20469;-71
2021/11/10 01:59:30;;;;;;;14.88;10.73;;;;;;;3.44;89.43;97446.72;5091909;28;20488;-70
2021/11/10 02:01:56;;;;;;;14.88;11.02;;;;;;;3.43;89.72;97457.22;5104660;28;20407;-71
2021/11/10 02:04:24;;;;;;;16.85;10.82;;;;;;;3.38;89.70;97447.38;5111019;28;20479;-71
2021/11/10 02:06:49;;;;;;;14.33;10.60;;;;;;;3.41;90.50;97441.03;5107601;28;20430;-71
2021/11/10 02:09:15;;;;;;;16.20;11.03;;;;;;;3.43;90.55;97433.91;5089910;28;20412;-71
2021/11/10 02:11:40;;;;;;;18.92;11.93;;;;;;;3.51;90.41;97428.72;5091488;28;20397;-71
2021/11/10 02:14:06;;;;;;;14.50;10.80;;;;;;;3.50;90.07;97427.91;5091582;28;20402;-71
2021/11/10 02:16:37;;;;;;;15.05;10.60;;;;;;;3.55;89.43;97432.59;5092511;28;20906;-72
2021/11/10 02:19:05;;;;;;;13.63;10.00;;;;;;;3.34;90.40;97433.13;5101593;28;20430;-71
2021/11/10 02:21:31;;;;;;;15.87;10.43;;;;;;;3.28;89.83;97431.19;5092745;28;20411;-72
2021/11/10 02:23:58;;;;;;;14.55;10.07;;;;;;;3.19;89.81;97430.38;5111579;28;20381;-71
2021/11/10 02:26:25;;;;;;;17.00;10.43;;;;;;;3.13;90.89;97425.88;5111017;28;20491;-71
2021/11/10 02:28:51;;;;;;;13.55;9.90;;;;;;;3.21;91.41;97419.88;5109105;28;20415;-71
2021/11/10 02:31:16;;;;;;;16.90;11.02;;;;;;;3.23;91.09;97418.72;5108487;28;20522;-71
2021/11/10 02:33:43;;;;;;;17.35;11.30;;;;;;;3.32;91.37;97406.56;5091668;28;20463;-71
2021/11/10 02:36:08;;;;;;;14.98;11.23;;;;;;;3.41;90.55;97412.53;5093804;28;20401;-71
2021/11/10 02:38:34;;;;;;;14.70;10.90;;;;;;;3.49;90.28;97415.13;5097285;28;20880;-71
2021/11/10 02:41:01;;;;;;;14.88;10.93;;;;;;;3.53;90.04;97417.19;5115436;28;20388;-71
2021/11/10 02:43:28;;;;;;;17.02;11.15;;;;;;;3.48;89.13;97424.66;5096755;28;20821;-73
2021/11/10 02:45:54;;;;;;;15.38;10.75;;;;;;;3.30;89.73;97424.88;5095994;28;20438;-71
2021/11/10 02:48:19;;;;;;;13.77;10.68;;;;;;;3.30;90.32;97429.22;5095943;28;20394;-72
2021/11/10 02:50:45;;;;;;;17.10;11.00;;;;;;;3.16;90.68;97435.91;5093740;28;20738;-71
2021/11/10 02:53:12;;;;;;;14.60;10.90;;;;;;;3.09;91.28;97431.53;5110647;28;20463;-72
2021/11/10 02:55:37;;;;;;;15.43;10.88;;;;;;;3.19;90.85;97427.00;5097046;28;20392;-71
2021/11/10 02:58:03;;;;;;;15.07;10.77;;;;;;;3.20;91.17;97419.06;5095301;28;20888;-72
2021/11/10 03:00:29;;;;;;;17.10;11.32;;;;;;;3.16;91.22;97420.38;5094840;28;20950;-72
2021/11/10 03:02:55;;;;;;;18.45;11.25;;;;;;;3.08;91.90;97415.19;5099412;28;20825;-71
2021/11/10 03:05:23;;;;;;;16.67;12.07;;;;;;;3.24;91.25;97417.75;5094758;28;20809;-72
2021/11/10 03:07:48;;;;;;;16.05;12.05;;;;;;;3.22;92.25;97421.50;5093246;28;20523;-72
2021/11/10 03:10:14;;;;;;;18.33;11.77;;;;;;;3.24;91.58;97419.53;5094837;28;20470;-71
2021/11/10 03:12:40;;;;;;;17.45;11.50;;;;;;;3.10;91.58;97417.63;5093018;28;20413;-72
2021/11/10 03:15:06;;;;;;;16.20;11.80;;;;;;;3.19;92.06;97412.25;5096023;28;20871;-71
2021/11/10 03:17:32;;;;;;;17.30;11.68;;;;;;;3.15;91.86;97417.94;5094651;28;20394;-71
2021/11/10 03:19:57;;;;;;;16.23;11.55;;;;;;;3.20;91.96;97420.84;5113164;28;20742;-71
2021/11/10 03:22:23;;;;;;;18.30;12.27;;;;;;;3.21;91.84;97422.47;5114366;28;20388;-71
2021/11/10 03:24:49;;;;;;;16.93;11.80;;;;;;;3.27;91.81;97422.63;5100215;28;20407;-71
2021/11/10 03:27:15;;;;;;;16.63;12.32;;;;;;;3.19;92.10;97427.78;5094214;28;20427;-72
2021/11/10 03:29:41;;;;;;;15.63;11.23;;;;;;;3.15;91.68;97423.13;5102620;28;20472;-71
2021/11/10 03:32:10;;;;;;;14.30;10.45;;;;;;;3.13;89.88;97420.69;5093845;28;20386;-71
2021/11/10 03:34:35;;;;;;;15.10;10.13;;;;;;;2.98;90.26;97437.84;5093977;28;20897;-71
2021/11/10 03:37:01;;;;;;;14.90;10.50;;;;;;;2.80;91.10;97432.84;5094186;28;20394;-71
2021/11/10 03:39:27;;;;;;;15.27;10.20;;;;;;;2.87;90.43;97428.66;5107784;28;20380;-72
2021/11/10 03:41:53;;;;;;;15.77;10.00;;;;;;;2.75;91.07;97422.16;5092243;28;20390;-71
2021/11/10 03:44:18;;;;;;;13.35;9.75;;;;;;;2.65;91.66;97429.28;5092396;28;20495;-72
2021/11/10 03:46:45;;;;;;;14.68;10.07;;;;;;;2.87;90.27;97420.06;5093834;28;20417;-72
2021/11/10 03:49:11;;;;;;;13.13;10.50;;;;;;;2.67;91.06;97422.19;5104905;28;20499;-72
2021/11/10 03:51:37;;;;;;;14.87;10.30;;;;;;;2.58;91.33;97419.72;5114143;28;20434;-72
2021/11/10 03:54:03;;;;;;;14.25;9.85;;;;;;;2.58;91.99;97422.31;5111308;28;20396;-72
2021/11/10 03:56:28;;;;;;;14.38;10.13;;;;;;;2.62;91.21;97434.78;5113541;28;20401;-72
2021/11/10 03:58:53;;;;;;;13.83;10.00;;;;;;;2.46;91.99;97432.97;5104747;28;20868;-71
2021/11/10 04:01:19;;;;;;;13.20;10.23;;;;;;;2.40;93.29;97431.03;5100918;28;20838;-72
2021/11/10 04:03:45;;;;;;;13.20;9.98;;;;;;;2.37;93.05;97426.19;5094072;28;20405;-72
2021/11/10 04:06:11;;;;;;;15.57;9.95;;;;;;;2.35;93.55;97419.53;5113981;28;20420;-71
2021/11/10 04:08:37;;;;;;;16.70;10.63;;;;;;;2.42;92.92;97423.13;5111727;28;20377;-72
2021/11/10 04:11:02;;;;;;;15.43;11.38;;;;;;;2.45;93.32;97425.41;5094264;28;20728;-73
2021/11/10 04:13:29;;;;;;;15.63;11.15;;;;;;;2.56;93.88;97424.28;5094437;28;20398;-72
2021/11/10 04:15:55;;;;;;;16.02;11.43;;;;;;;2.49;94.33;97413.75;5111824;28;20389;-72
2021/11/10 04:18:20;;;;;;;16.42;11.50;;;;;;;2.59;94.05;97403.25;5112739;28;20403;-72
2021/11/10 04:20:46;;;;;;;16.08;11.80;;;;;;;2.58;94.02;97410.19;5094898;28;20864;-72
2021/11/10 04:23:12;;;;;;;16.63;11.87;;;;;;;2.72;93.39;97404.38;5097239;28;20426;-73
2021/11/10 04:25:38;;;;;;;17.90;12.07;;;;;;;2.77;93.23;97411.66;5109321;28;20418;-73
2021/11/10 04:28:04;;;;;;;15.23;11.05;;;;;;;2.84;92.24;97407.47;5112599;28;20888;-71
2021/11/10 04:30:29;;;;;;;17.48;11.63;;;;;;;2.88;92.55;97403.56;5091139;28;20398;-72
2021/11/10 04:32:55;;;;;;;14.48;10.23;;;;;;;2.93;92.15;97411.66;5095332;28;20751;-71
2021/11/10 04:35:21;;;;;;;16.65;10.45;;;;;;;3.09;91.51;97414.22;5109463;28;20431;-72
2021/11/10 04:37:47;;;;;;;14.98;11.07;;;;;;;3.17;90.57;97416.81;5102451;28;20473;-71
2021/11/10 04:40:12;;;;;;;19.23;10.70;;;;;;;3.01;91.34;97403.09;5091081;28;20861;-72
2021/11/10 04:42:39;;;;;;;15.00;10.30;;;;;;;3.05;91.34;97409.53;5093150;28;20492;-71
2021/11/10 04:45:11;;;;;;;13.95;10.18;;;;;;;3.04;91.65;97416.50;5094103;28;20766;-72
2021/11/10 04:47:37;;;;;;;21.50;11.07;;;;;;;3.05;91.39;97412.94;5091275;28;20394;-71
2021/11/10 04:50:05;;;;;;;14.10;10.52;;;;;;;3.15;90.79;97410.97;5093544;28;20409;-71
2021/11/10 04:52:31;;;;;;;16.77;10.55;;;;;;;3.13;90.48;97412.91;5112779;28;20404;-71
2021/11/10 04:54:57;;;;;;;15.57;10.37;;;;;;;3.08;91.26;97412.59;5112486;28;20400;-72
2021/11/10 04:57:22;;;;;;;15.87;10.60;;;;;;;3.13;91.10;97401.75;5094771;28;20384;-72
2021/11/10 04:59:48;;;;;;;13.50;9.90;;;;;;;3.18;90.93;97407.25;5093853;28;20442;-72
2021/11/10 05:04:41;;;;;;;16.90;10.53;;;;;;;3.30;90.27;97390.38;5095834;28;20892;-72
2021/11/10 05:07:09;;;;;;;17.63;11.20;;;;;;;3.35;90.18;97395.88;5094676;28;20400;-72
2021/11/10 05:09:35;;;;;;;15.65;10.52;;;;;;;3.18;90.82;97399.47;5094394;28;20380;-72
2021/11/10 05:12:00;;;;;;;16.63;10.47;;;;;;;3.14;91.40;97388.63;5090671;28;20398;-72
2021/11/10 05:14:26;;;;;;;17.57;11.17;;;;;;;3.23;90.29;97390.22;5094050;28;20430;-72
2021/11/10 05:16:51;;;;;;;16.63;11.20;;;;;;;3.20;90.43;97393.16;5094350;28;20883;-72
2021/11/10 05:19:18;;;;;;;21.80;11.00;;;;;;;3.21;90.49;97402.56;5112540;28;20456;-72
2021/11/10 05:21:44;;;;;;;17.75;11.32;;;;;;;3.31;90.44;97407.53;5093654;28;20407;-72
2021/11/10 05:24:10;;;;;;;16.20;11.23;;;;;;;3.22;90.12;97409.34;5093506;28;20396;-72
2021/11/10 05:26:38;;;;;;;15.77;10.85;;;;;;;3.14;91.72;97411.94;5093165;28;20441;-72
2021/11/10 05:29:04;;;;;;;15.55;10.77;;;;;;;3.09;91.36;97411.63;5103221;28;20405;-75
2021/11/10 05:31:29;;;;;;;16.38;12.05;;;;;;;3.19;91.05;97411.44;5093411;28;20395;-71
2021/11/10 05:33:55;;;;;;;22.20;13.02;;;;;;;3.19;91.13;97417.44;5090219;28;20779;-71
2021/11/10 05:36:20;;;;;;;17.70;12.37;;;;;;;3.26;91.68;97426.19;5098853;28;20881;-72
2021/11/10 05:38:46;;;;;;;17.53;12.97;;;;;;;3.24;91.93;97427.31;5094048;28;20380;-72
2021/11/10 05:41:11;;;;;;;18.50;12.93;;;;;;;3.35;91.33;97432.94;5093860;28;20923;-73
2021/11/10 05:43:37;;;;;;;18.10;12.70;;;;;;;3.51;90.20;97439.88;5093446;28;20427;-73
2021/11/10 05:46:04;;;;;;;19.63;13.00;;;;;;;3.39;90.53;97436.03;5093951;28;20388;-72
2021/11/10 05:48:30;;;;;;;19.10;12.70;;;;;;;3.27;90.28;97427.78;5111314;28;20387;-72
2021/11/10 05:50:55;;;;;;;16.53;11.90;;;;;;;3.30;91.28;97424.06;5090323;28;20385;-72
2021/11/10 05:53:21;;;;;;;17.13;11.83;;;;;;;3.45;89.79;97417.25;5089869;28;20441;-72
2021/11/10 05:55:52;;;;;;;16.42;11.63;;;;;;;3.30;90.35;97419.69;5092845;28;20404;-72
2021/11/10 05:58:18;;;;;;;14.57;10.82;;;;;;;3.27;90.33;97409.66;5111175;28;20956;-71
2021/11/10 06:00:44;;;;;;;16.33;11.73;;;;;;;3.29;89.93;97406.88;5097731;28;20392;-71
2021/11/10 06:03:09;;;;;;;16.63;11.77;;;;;;;3.16;91.27;97410.00;5089363;28;20390;-72
2021/11/10 06:05:35;;;;;;;16.60;11.77;;;;;;;3.10;91.07;97415.03;5089658;28;20425;-71
2021/11/10 06:08:00;;;;;;;17.37;11.37;;;;;;;3.10;89.81;97415.84;5090122;28;20841;-69
2021/11/10 06:10:26;;;;;;;17.23;10.90;;;;;;;2.82;88.78;97415.38;5093368;28;20443;-70
2021/11/10 06:12:51;;;;;;;13.83;9.60;;;;;;;2.75;88.47;97421.34;5096545;28;20413;-74
2021/11/10 06:15:17;;;;;;;14.67;10.33;;;;;;;2.54;89.62;97421.84;5095681;28;20837;-70
2021/11/10 06:17:43;;;;;;;14.77;10.10;;;;;;;2.44;90.36;97423.78;5093981;28;20413;-70
2021/11/10 06:20:10;;;;;;;14.02;10.35;;;;;;;2.43;90.63;97407.44;5101044;28;20392;-72
2021/11/10 06:22:36;;;;;;;16.15;11.38;;;;;;;2.40;90.68;97417.28;5093468;28;20393;-70
2021/11/10 06:25:04;;;;;;;17.97;9.33;;;;;;;2.10;93.36;97408.34;5109332;28;20248;-71
2021/11/10 06:27:29;;;;;;;13.43;8.70;;;;;;;2.23;93.28;97413.06;5115988;28;20186;-69
2021/11/10 06:29:55;;;;;;;14.43;8.77;;;;;;;2.31;92.44;97423.41;5095557;28;20265;-70
2021/11/10 06:32:20;;;;;;;15.33;9.37;;;;;;;2.40;92.62;97419.88;5096688;28;20714;-71
2021/11/10 06:34:46;;;;;;;14.53;9.33;;;;;;;2.13;94.41;97418.38;5096632;28;20181;-70
2021/11/10 06:37:11;;;;;;;16.77;9.37;;;;;;;2.12;94.41;97432.25;5096813;28;20211;-70
2021/11/10 06:39:36;;;;;;;17.23;8.87;;;;;;;2.18;94.11;97426.47;5098261;28;20584;-71
2021/11/10 06:42:03;;;;;;;17.67;9.27;;;;;;;2.34;92.91;97431.66;5110903;28;20570;-71
2021/11/10 06:44:29;;;;;;;16.40;11.15;;;;;;;2.29;92.55;97428.75;5093690;28;20386;-70
2021/11/10 06:46:59;;;;;;;17.13;9.77;;;;;;;2.45;91.83;97422.81;5098398;28;20249;-70
2021/11/10 06:49:24;;;;;;;14.63;9.00;;;;;;;2.33;93.19;97424.09;5102325;28;20181;-70
2021/11/10 06:51:50;;;;;;;17.83;9.57;;;;;;;2.42;92.71;97429.09;5097026;28;20189;-70
2021/11/10 06:54:15;;;;;;;16.57;9.73;;;;;;;2.38;93.86;97432.97;5098131;28;20200;-71
2021/11/10 06:56:41;;;;;;;15.23;8.97;;;;;;;2.60;92.14;97426.38;5097744;28;20184;-70
2021/11/10 06:59:07;;;;;;;16.70;9.77;;;;;;;2.46;92.99;97424.41;5112826;28;20483;-70
2021/11/10 07:01:33;;;;;;;13.97;9.60;;;;;;;2.42;93.20;97433.47;5094005;28;20187;-71
2021/11/10 07:03:58;;;;;;;14.63;9.20;;;;;;;2.49;93.53;97434.44;5097446;28;20191;-72
2021/11/10 07:06:24;;;;;;;11.67;8.67;;;;;;;2.54;93.22;97436.56;5114226;28;20687;-71
2021/11/10 07:08:49;;;;;;;15.83;9.97;;;;;;;2.84;92.13;97436.72;5114714;28;20730;-72
2021/11/10 07:11:15;;;;;;;14.87;9.77;;;;;;;2.97;91.31;97436.25;5094915;28;20179;-70
2021/11/10 07:13:40;;;;;;;18.93;10.57;;;;;;;2.99;92.14;97449.03;5113011;28;20563;-71
2021/11/10 07:16:06;;;;;;;15.83;9.73;;;;;;;3.11;92.52;97447.72;5095943;28;20176;-70
2021/11/10 07:18:31;;;;;;;18.63;10.27;;;;;;;3.29;91.36;97441.38;5113626;28;20550;-71
2021/11/10 07:20:56;;;;;;;17.53;10.33;;;;;;;3.57;90.24;97441.81;5094819;28;20548;-71
2021/11/10 07:23:22;;;;;;;16.83;10.37;;;;;;;3.73;88.83;97439.16;5088980;28;20192;-69
2021/11/10 07:25:47;;;;;;;16.13;10.50;;;;;;;3.64;88.96;97447.94;5093624;28;20185;-72
2021/11/10 07:28:14;;;;;;;17.07;10.50;;;;;;;3.63;89.14;97443.72;5093996;28;20266;-68
2021/11/10 07:30:40;;;;;;;18.10;10.73;;;;;;;3.80;88.34;97446.25;5094579;28;20180;-70
2021/11/10 07:33:07;;;;;;;18.37;11.07;;;;;;;3.83;87.60;97446.75;5110977;28;20675;-74
2021/11/10 07:35:32;;;;;;;13.17;9.23;;;;;;;4.00;87.44;97450.09;5103283;28;20190;-69
2021/11/10 07:37:58;;;;;;;15.27;10.23;;;;;;;4.13;86.33;97447.75;5103217;28;20259;-68
2021/11/10 07:40:24;;;;;;;21.30;10.43;;;;;;;3.97;86.85;97445.22;5105997;28;20632;-68
2021/11/10 07:42:50;;;;;;;14.63;9.63;;;;;;;4.09;89.17;97442.09;5094187;28;20188;-67
2021/11/10 07:45:20;;;;;;;15.70;10.43;;;;;;;4.65;86.45;97447.94;5094112;28;20185;-68
2021/11/10 07:47:47;;;;;;;16.70;9.87;;;;;;;4.80;84.19;97440.19;5094592;28;20680;-68
2021/11/10 07:50:19;;;;;;;13.67;9.67;;;;;;;4.94;83.03;97445.44;5091711;28;20246;-66
2021/11/10 07:52:46;;;;;;;21.20;10.77;;;;;;;4.92;82.99;97433.63;5099855;28;20203;-66
2021/11/10 07:55:12;;;;;;;17.90;10.70;;;;;;;4.79;83.23;97433.41;5091865;28;20267;-68
2021/11/10 07:57:38;;;;;;;17.97;10.97;;;;;;;4.83;83.10;97435.47;5112130;28;20188;-67
2021/11/10 08:00:07;;;;;;;15.47;10.80;;;;;;;5.07;82.62;97444.84;5094364;28;20173;-68
2021/11/10 08:02:33;;;;;;;16.73;9.50;;;;;;;4.83;82.38;97447.66;5090707;28;20256;-67
2021/11/10 08:04:58;;;;;;;17.00;10.20;;;;;;;4.85;82.56;97443.88;5062075;28;1123090;-67
2021/11/10 08:07:24;;;;;;;18.03;10.23;;;;;;;4.95;82.03;97447.06;5094843;28;20203;-68
2021/11/10 08:09:49;;;;;;;14.53;9.90;;;;;;;5.14;81.65;97444.94;5096284;28;20253;-68
2021/11/10 08:12:15;;;;;;;15.20;10.47;;;;;;;5.05;81.58;97446.81;5113912;28;20188;-69
2021/11/10 08:14:40;;;;;;;16.93;10.70;;;;;;;5.02;82.11;97447.16;5112567;28;20203;-69
2021/11/10 08:17:06;;;;;;;16.67;10.90;;;;;;;4.94;82.59;97449.84;5095104;28;20180;-67
2021/11/10 08:19:31;;;;;;;16.90;10.53;;;;;;;5.04;82.07;97453.00;5094290;28;20193;-66
2021/11/10 08:21:57;;;;;;;16.60;9.87;;;;;;;5.10;81.65;97462.69;5113875;28;20548;-67
2021/11/10 08:24:26;;;;;;;20.47;11.23;;;;;;;5.16;81.03;97458.59;5103649;28;20520;-68
2021/11/10 08:26:51;;;;;;;18.30;10.13;;;;;;;5.19;81.11;97451.22;5092364;28;20184;-68
2021/11/10 08:29:17;;;;;;;14.67;9.93;;;;;;;5.14;80.94;97461.34;5094298;28;20651;-68
2021/11/10 08:31:42;;;;;;;23.90;11.47;;;;;;;4.98;82.04;97459.69;5094955;28;20715;-68
2021/11/10 08:34:08;;;;;;;16.03;11.00;;;;;;;5.19;81.36;97460.81;5112922;28;20200;-68
2021/11/10 08:36:33;;;;;;;13.90;10.27;;;;;;;5.18;80.48;97469.63;5114033;28;20185;-68
2021/11/10 08:38:59;;;;;;;16.60;10.47;;;;;;;5.18;81.31;97467.84;5109433;28;20646;-68
2021/11/10 08:41:25;;;;;;;19.00;10.60;;;;;;;5.34;80.73;97466.88;5100025;28;20197;-71
2021/11/10 08:43:51;;;;;;;20.30;11.13;;;;;;;5.14;81.25;97470.94;5093685;28;20183;-67
2021/11/10 08:46:18;;;;;;;15.10;10.53;;;;;;;5.35;79.91;97477.06;5093788;28;20220;-67
2021/11/10 08:48:44;;;;;;;18.17;10.07;;;;;;;5.48;79.36;97468.69;5095084;28;20188;-67
2021/11/10 08:51:09;;;;;;;15.17;9.97;;;;;;;5.44;79.45;97467.44;5096902;28;20217;-70
2021/11/10 08:53:35;;;;;;;17.07;10.03;;;;;;;5.23;80.11;97462.09;5098752;28;20543;-65
2021/11/10 08:56:03;;;;;;;16.13;9.77;;;;;;;5.29;80.38;97466.59;5095213;28;20191;-69
2021/11/10 08:58:29;;;;;;;17.47;10.90;;;;;;;5.44;79.87;97467.44;5095190;28;20183;-67
2021/11/10 09:00:56;;;;;;;16.33;10.43;;;;;;;5.49;79.66;97470.28;5094767;28;20177;-66
2021/11/10 09:03:23;;;;;;;16.73;9.80;;;;;;;5.53;79.50;97470.75;5093684;28;20570;-67
2021/11/10 09:05:50;;;;;;;14.27;9.80;;;;;;;5.44;79.77;97470.03;5105198;28;20289;-67
2021/11/10 09:08:16;;;;;;;15.53;10.17;;;;;;;5.31;80.58;97464.59;5113411;28;20543;-66
2021/11/10 09:10:43;;;;;;;15.67;9.93;;;;;;;5.41;80.34;97467.75;5099448;28;20647;-68
2021/11/10 09:13:09;;;;;;;15.93;9.43;;;;;;;5.25;80.83;97470.50;5093500;28;20250;-68
2021/11/10 09:15:35;;;;;;;16.53;9.97;;;;;;;5.17;80.97;97468.81;5096580;28;20267;-69
2021/11/10 09:18:03;;;;;;;15.60;9.83;;;;;;;5.30;80.85;97479.41;5110599;28;20215;-68
2021/11/10 09:20:30;;;;;;;15.37;10.30;;;;;;;5.60;79.62;97472.47;5110875;28;20655;-69
2021/11/10 09:22:58;;;;;;;17.07;10.07;;;;;;;5.64;79.59;97472.91;5091349;28;20271;-69
2021/11/10 09:25:25;;;;;;;14.70;9.57;;;;;;;5.86;78.97;97470.22;5096920;28;20184;-69
2021/11/10 09:27:52;;;;;;;16.57;9.73;;;;;;;5.97;78.63;97468.97;5096340;28;20206;-69
2021/11/10 09:30:19;;;;;;;15.33;9.70;;;;;;;6.12;77.90;97469.00;5095399;28;20625;-66
2021/11/10 09:32:47;;;;;;;14.90;9.73;;;;;;;6.25;77.14;97469.13;5091499;28;20200;-69
2021/11/10 09:35:16;;;;;;;17.13;10.50;;;;;;;6.46;76.58;97474.41;5093465;28;20219;-66
2021/11/10 09:37:42;;;;;;;14.27;9.67;;;;;;;6.45;76.53;97471.97;5092685;28;20184;-67
2021/11/10 09:40:12;;;;;;;16.87;10.60;;;;;;;6.63;76.33;97470.56;5093107;28;20519;-67
2021/11/10 09:42:38;;;;;;;20.40;10.30;;;;;;;6.69;76.32;97476.84;5092844;28;20180;-66
2021/11/10 09:45:06;;;;;;;17.87;10.33;;;;;;;6.83;75.98;97467.38;5093804;28;20673;-69
2021/11/10 09:47:33;;;;;;;14.27;9.67;;;;;;;6.95;75.53;97477.13;5110443;28;20184;-66
2021/11/10 09:49:58;;;;;;;15.40;10.60;;;;;;;7.26;74.64;97475.97;5091391;28;20177;-67
2021/11/10 09:52:24;;;;;;;13.17;9.47;;;;;;;7.15;74.62;97473.84;5093211;28;20207;-68
2021/11/10 09:54:50;;;;;;;16.40;10.00;;;;;;;6.94;75.51;97477.28;5092883;28;20183;-66
2021/11/10 09:57:16;;;;;;;14.73;9.37;;;;;;;7.09;75.00;97467.59;5111782;28;20180;-66
2021/11/10 09:59:42;;;;;;;13.63;9.47;;;;;;;7.20;74.64;97464.47;5097815;28;20181;-67
2021/11/10 10:02:11;;;;;;;16.43;10.40;;;;;;;7.39;74.14;97463.84;5093471;28;20246;-67
2021/11/10 10:04:41;;;;;;;13.87;8.57;;;;;;;7.20;74.55;97456.66;5092488;28;20228;-68
2021/11/10 10:07:08;;;;;;;13.83;9.03;;;;;;;7.35;74.23;97452.19;5092605;28;20657;-68
2021/11/10 10:09:34;;;;;;;17.10;10.07;;;;;;;7.35;74.01;97457.41;5094384;28;20250;-67
2021/11/10 10:11:59;;;;;;;15.30;9.47;;;;;;;7.17;74.89;97461.44;5112550;28;20180;-66
2021/11/10 10:14:25;;;;;;;13.93;8.67;;;;;;;7.35;74.03;97451.38;5100493;28;20587;-66
2021/11/10 10:16:50;;;;;;;;;;;;;;;7.35;74.15;97462.63;5092852;28;20184;-66
2021/11/10 10:19:16;;;;;;;;;;;;;;;7.31;74.40;97460.56;5102514;28;20325;-67
2021/11/10 10:21:42;;;;;;;;;;;;;;;7.43;75.25;97464.25;5103532;28;20003;-66
2021/11/10 10:24:08;;;;;;;;;;;;;;;7.57;75.04;97455.53;5094312;28;19962;-66
2021/11/10 10:26:33;;;;;;;;;;;;;;;7.52;75.03;97453.47;5093372;28;19919;-67
2021/11/10 10:29:07;;;;;;;;;;;;;;;7.72;74.57;97456.22;5100376;28;20395;-66
2021/11/10 10:31:32;;;;;;;;;;;;;;;7.62;74.84;97442.72;5094122;28;19918;-66
2021/11/10 10:34:01;;;;;;;;;;;;;;;7.71;73.88;97441.56;5110338;28;20484;-66
2021/11/10 10:36:28;;;;;;;;;;;;;;;7.55;73.70;97435.84;5102880;28;19920;-66
2021/11/10 10:38:58;;;;;;;;;;;;;;;7.73;73.16;97430.94;5094176;28;19923;-66
2021/11/10 10:41:28;;;;;;;;;;;;;;;7.82;73.14;97440.22;5112874;28;19947;-66
2021/11/10 10:43:54;;;;;;;;;;;;;;;8.20;71.65;97435.38;5102497;28;19920;-66
2021/11/10 10:46:38;;;;;;;;;;;;;;;7.98;72.39;97428.66;5092308;28;20292;-66
2021/11/10 10:49:38;;;;;;;;;;;;;;;8.08;72.75;97429.13;5092716;28;19916;-66
2021/11/10 10:52:11;;;;;;;;;;;;;;;8.30;72.49;97420.97;5067890;28;20280;-66
2021/11/10 10:54:38;;;;;;;;;;;;;;;8.27;72.73;97415.31;5108734;28;19979;-66
2021/11/10 10:57:03;;;;;;;;;;;;;;;8.22;73.35;97420.31;5108921;28;19927;-67
2021/11/10 10:59:29;;;;;;;;;;;;;;;8.19;73.91;97426.72;5096955;28;19915;-65
2021/11/10 11:01:58;;;;;;;;;;;;;;;8.23;74.18;97414.91;5111489;28;20371;-66
2021/11/10 11:04:28;;;;;;;;;;;;;;;8.49;73.03;97408.16;5095663;28;19920;-74
2021/11/10 11:07:01;;;;;;;;;;;;;;;8.79;71.03;97406.81;5096124;28;19916;-66
2021/11/10 11:09:29;;;;;;;;;;;;;;;8.91;70.48;97407.03;5115289;28;19967;-66
2021/11/10 11:11:58;;;;;;;;;;;;;;;8.70;71.77;97419.25;5115331;28;19916;-69
2021/11/10 11:14:36;;;;;;;;;;;;;;;8.54;72.50;97427.47;5107635;28;19933;-67
2021/11/10 11:17:04;;;;;;;;;;;;;;;8.68;72.13;97417.88;5113146;28;20023;-68
2021/11/10 11:19:33;;;;;;;;;;;;;;;8.59;72.28;97416.44;5095227;28;19916;-67
2021/11/10 11:21:59;;;;;;;;;;;;;;;8.58;72.73;97407.00;5097469;28;19922;-65
2021/11/10 11:24:32;;;;;;;;;;;;;;;8.63;71.92;97413.25;5096957;28;20360;-67
2021/11/10 11:27:14;;;;;;;;;;;;;;;8.73;71.81;97413.66;5099112;28;20388;-67
2021/11/10 11:29:39;;;;;;;16.17;10.30;;;;;;;8.59;72.19;97408.59;5111298;28;20281;-67
2021/11/10 11:32:21;;;;;;;14.70;9.93;;;;;;;8.48;72.55;97401.34;5111387;28;20172;-66
2021/11/10 11:34:52;;;;;;;18.13;12.15;;;;;;;8.97;70.81;97401.78;5108950;28;20402;-66
2021/11/10 11:37:17;;;;;;;22.42;12.95;;;;;;;9.41;68.83;97382.88;5094135;28;20430;-67